Terminal Aerodrome Forecast
Issued by NWS Knoxville/Tri Cities, TN

Home | Current Version | Previous Version | Text Only | Print | Product List | Glossary On
Versions: 1 2 3 4 5 6 7 8 9 10 11 12 13 14 15 16 17 18 19 20 21 22 23 24 25 26 27 28 29 30
000
FTUS44 KMRX 291720
TAFTRI
TAF
KTRI 291720Z 2918/3018 01004KT P6SM VCSH SCT050 OVC120
     FM292300 VRB03KT P6SM BKN100
     FM300800 00000KT 3SM BR SCT100
      TEMPO 3010/3012 1SM BR SCT002
     FM301300 34007KT P6SM SCT040=

USA.gov is the U.S. government's official web portal to all federal, state and local government web resources and services.